Zwolle, Louisiana
Current Conditions -  °F | °C
As of 6:56 AM on Wednesday 22 Oct 2014 (Local Time) from KAQV Reporting Station
Haze Haze  
Wind Chill: 58°   Ceiling: 4200
Heat Index: 58°   Visibility: 5mi
Dew Point: 56°   Wind: 0mph
Humidity: 93%   Direction: NA
Pressure: 30.08"   Gusts: NA
Location:  31.63°N, 93.64°W
Report Text: KAQV 221156Z AUTO 00000KT 5SM BR OVC042 14/13 A3008 RMK AO2 SLP185 T01440133 10156 20139 51008
Loading
Personal Weather Stations






























Interactive Weather Map New forecast layout! Learn more

10-Day Weather Forecast

Advertisements
Track Severe Weather on mobile